sensor_id;sensor_type;location;lat;lon;timestamp;temperature;humidity
6114;DHT22;3087;48.392;10.836;2022-12-10T00:01:17;4.60;99.90
6114;DHT22;3087;48.392;10.836;2022-12-10T00:03:44;4.50;99.90
6114;DHT22;3087;48.392;10.836;2022-12-10T00:06:12;4.50;99.90
6114;DHT22;3087;48.392;10.836;2022-12-10T00:08:38;4.50;99.90
6114;DHT22;3087;48.392;10.836;2022-12-10T00:11:08;4.50;99.90
6114;DHT22;3087;48.392;10.836;2022-12-10T00:13:35;4.60;99.90
6114;DHT22;3087;48.392;10.836;2022-12-10T00:16:02;4.60;99.90
6114;DHT22;3087;48.392;10.836;2022-12-10T00:20:54;4.70;99.90
6114;DHT22;3087;48.392;10.836;2022-12-10T00:23:20;4.60;99.90
6114;DHT22;3087;48.392;10.836;2022-12-10T00:28:12;4.60;99.90
6114;DHT22;3087;48.392;10.836;2022-12-10T00:30:38;4.60;99.90
6114;DHT22;3087;48.392;10.836;2022-12-10T00:35:30;4.60;99.90
6114;DHT22;3087;48.392;10.836;2022-12-10T00:47:40;4.60;99.90
6114;DHT22;3087;48.392;10.836;2022-12-10T00:50:05;4.60;99.90
6114;DHT22;3087;48.392;10.836;2022-12-10T00:52:31;4.70;99.90
6114;DHT22;3087;48.392;10.836;2022-12-10T00:54:57;4.70;99.90
6114;DHT22;3087;48.392;10.836;2022-12-10T01:02:14;4.60;99.90
6114;DHT22;3087;48.392;10.836;2022-12-10T01:07:06;4.60;99.90
6114;DHT22;3087;48.392;10.836;2022-12-10T01:09:31;4.70;99.90
6114;DHT22;3087;48.392;10.836;2022-12-10T01:12:00;4.60;99.90
6114;DHT22;3087;48.392;10.836;2022-12-10T01:14:29;4.60;99.90
6114;DHT22;3087;48.392;10.836;2022-12-10T01:16:58;4.60;99.90
6114;DHT22;3087;48.392;10.836;2022-12-10T01:19:24;4.60;99.90
6114;DHT22;3087;48.392;10.836;2022-12-10T01:21:53;4.50;99.90
6114;DHT22;3087;48.392;10.836;2022-12-10T01:24:24;4.40;99.90
6114;DHT22;3087;48.392;10.836;2022-12-10T01:29:16;4.30;99.90
6114;DHT22;3087;48.392;10.836;2022-12-10T01:34:11;4.20;99.90
6114;DHT22;3087;48.392;10.836;2022-12-10T01:36:44;4.10;99.90
6114;DHT22;3087;48.392;10.836;2022-12-10T01:39:12;4.10;99.90
6114;DHT22;3087;48.392;10.836;2022-12-10T01:41:47;4.20;99.90
6114;DHT22;3087;48.392;10.836;2022-12-10T01:46:41;4.20;99.90
6114;DHT22;3087;48.392;10.836;2022-12-10T01:49:13;4.20;99.90
6114;DHT22;3087;48.392;10.836;2022-12-10T01:51:41;4.20;99.90
6114;DHT22;3087;48.392;10.836;2022-12-10T01:54:10;4.10;99.90
6114;DHT22;3087;48.392;10.836;2022-12-10T01:56:41;4.20;99.90
6114;DHT22;3087;48.392;10.836;2022-12-10T01:59:07;4.20;99.90
6114;DHT22;3087;48.392;10.836;2022-12-10T02:07:29;4.20;99.90
6114;DHT22;3087;48.392;10.836;2022-12-10T02:15:19;4.30;99.90
6114;DHT22;3087;48.392;10.836;2022-12-10T02:17:48;4.40;99.90
6114;DHT22;3087;48.392;10.836;2022-12-10T02:20:16;4.40;99.90
6114;DHT22;3087;48.392;10.836;2022-12-10T02:22:50;4.50;99.90
6114;DHT22;3087;48.392;10.836;2022-12-10T02:25:20;4.60;99.90
6114;DHT22;3087;48.392;10.836;2022-12-10T02:27:58;4.50;99.90
6114;DHT22;3087;48.392;10.836;2022-12-10T02:30:25;4.40;99.90
6114;DHT22;3087;48.392;10.836;2022-12-10T02:32:51;4.50;99.90
6114;DHT22;3087;48.392;10.836;2022-12-10T02:35:25;4.50;99.90
6114;DHT22;3087;48.392;10.836;2022-12-10T02:37:57;4.50;99.90
6114;DHT22;3087;48.392;10.836;2022-12-10T02:40:27;4.40;99.90
6114;DHT22;3087;48.392;10.836;2022-12-10T02:42:54;4.30;99.90
6114;DHT22;3087;48.392;10.836;2022-12-10T02:45:22;4.40;99.90
6114;DHT22;3087;48.392;10.836;2022-12-10T02:47:49;4.40;99.90
6114;DHT22;3087;48.392;10.836;2022-12-10T02:50:18;2.90;99.90
6114;DHT22;3087;48.392;10.836;2022-12-10T02:55:12;4.20;99.90
6114;DHT22;3087;48.392;10.836;2022-12-10T02:58:00;4.10;99.90
6114;DHT22;3087;48.392;10.836;2022-12-10T03:00:28;4.00;99.90
6114;DHT22;3087;48.392;10.836;2022-12-10T03:08:50;4.20;99.90
6114;DHT22;3087;48.392;10.836;2022-12-10T03:11:19;4.10;99.90
6114;DHT22;3087;48.392;10.836;2022-12-10T03:16:28;4.00;99.90
6114;DHT22;3087;48.392;10.836;2022-12-10T03:18:57;4.00;99.90
6114;DHT22;3087;48.392;10.836;2022-12-10T03:21:26;4.10;99.90
6114;DHT22;3087;48.392;10.836;2022-12-10T03:26:20;4.20;99.90
6114;DHT22;3087;48.392;10.836;2022-12-10T03:28:50;4.20;99.90
6114;DHT22;3087;48.392;10.836;2022-12-10T03:31:17;4.20;99.90
6114;DHT22;3087;48.392;10.836;2022-12-10T03:33:45;4.20;99.90
6114;DHT22;3087;48.392;10.836;2022-12-10T03:36:12;4.30;99.90
6114;DHT22;3087;48.392;10.836;2022-12-10T03:38:39;4.40;99.90
6114;DHT22;3087;48.392;10.836;2022-12-10T03:41:05;4.30;99.90
6114;DHT22;3087;48.392;10.836;2022-12-10T03:43:32;4.30;99.90
6114;DHT22;3087;48.392;10.836;2022-12-10T03:45:58;4.20;99.90
6114;DHT22;3087;48.392;10.836;2022-12-10T03:50:49;4.20;99.90
6114;DHT22;3087;48.392;10.836;2022-12-10T03:53:15;4.10;99.90
6114;DHT22;3087;48.392;10.836;2022-12-10T04:05:24;4.20;99.90
6114;DHT22;3087;48.392;10.836;2022-12-10T04:07:50;4.20;99.90
6114;DHT22;3087;48.392;10.836;2022-12-10T04:10:15;4.10;99.90
6114;DHT22;3087;48.392;10.836;2022-12-10T04:12:41;4.10;99.90
6114;DHT22;3087;48.392;10.836;2022-12-10T04:15:07;4.10;99.90
6114;DHT22;3087;48.392;10.836;2022-12-10T04:17:52;4.00;99.90
6114;DHT22;3087;48.392;10.836;2022-12-10T04:23:03;4.10;99.90
6114;DHT22;3087;48.392;10.836;2022-12-10T04:25:47;4.10;99.90
6114;DHT22;3087;48.392;10.836;2022-12-10T04:28:31;4.20;99.90
6114;DHT22;3087;48.392;10.836;2022-12-10T04:33:22;4.10;99.90
6114;DHT22;3087;48.392;10.836;2022-12-10T04:45:34;4.00;99.90
6114;DHT22;3087;48.392;10.836;2022-12-10T04:47:59;4.00;99.90
6114;DHT22;3087;48.392;10.836;2022-12-10T04:50:25;4.00;99.90
6114;DHT22;3087;48.392;10.836;2022-12-10T04:52:50;4.00;99.90
6114;DHT22;3087;48.392;10.836;2022-12-10T05:00:09;4.00;99.90
6114;DHT22;3087;48.392;10.836;2022-12-10T05:12:18;4.00;99.90
6114;DHT22;3087;48.392;10.836;2022-12-10T05:14:44;4.00;99.90
6114;DHT22;3087;48.392;10.836;2022-12-10T05:17:09;4.00;99.90
6114;DHT22;3087;48.392;10.836;2022-12-10T05:24:45;3.90;99.90
6114;DHT22;3087;48.392;10.836;2022-12-10T05:44:13;3.90;99.90
6114;DHT22;3087;48.392;10.836;2022-12-10T05:46:39;3.90;99.90
6114;DHT22;3087;48.392;10.836;2022-12-10T05:49:06;4.10;99.90
6114;DHT22;3087;48.392;10.836;2022-12-10T05:51:35;4.10;99.90
6114;DHT22;3087;48.392;10.836;2022-12-10T05:54:01;4.00;99.90
6114;DHT22;3087;48.392;10.836;2022-12-10T05:56:29;4.00;99.90
6114;DHT22;3087;48.392;10.836;2022-12-10T05:58:58;4.10;99.90
6114;DHT22;3087;48.392;10.836;2022-12-10T06:01:27;4.00;99.90
6114;DHT22;3087;48.392;10.836;2022-12-10T06:03:53;4.00;99.90
6114;DHT22;3087;48.392;10.836;2022-12-10T06:06:23;4.00;99.90
6114;DHT22;3087;48.392;10.836;2022-12-10T06:08:50;4.10;99.90
6114;DHT22;3087;48.392;10.836;2022-12-10T06:11:16;4.00;99.90
6114;DHT22;3087;48.392;10.836;2022-12-10T06:13:42;3.90;99.90
6114;DHT22;3087;48.392;10.836;2022-12-10T06:16:10;4.00;99.90
6114;DHT22;3087;48.392;10.836;2022-12-10T06:18:37;4.00;99.90
6114;DHT22;3087;48.392;10.836;2022-12-10T06:21:07;3.90;99.90
6114;DHT22;3087;48.392;10.836;2022-12-10T06:23:36;3.80;99.90
6114;DHT22;3087;48.392;10.836;2022-12-10T06:26:18;3.70;99.90
6114;DHT22;3087;48.392;10.836;2022-12-10T06:28:45;3.70;99.90
6114;DHT22;3087;48.392;10.836;2022-12-10T06:31:10;3.80;99.90
6114;DHT22;3087;48.392;10.836;2022-12-10T06:33:36;3.80;99.90
6114;DHT22;3087;48.392;10.836;2022-12-10T06:36:06;3.80;99.90
6114;DHT22;3087;48.392;10.836;2022-12-10T06:38:33;3.70;99.90
6114;DHT22;3087;48.392;10.836;2022-12-10T06:40:59;3.70;99.90
6114;DHT22;3087;48.392;10.836;2022-12-10T06:43:27;3.70;99.90
6114;DHT22;3087;48.392;10.836;2022-12-10T06:50:45;3.90;99.90
6114;DHT22;3087;48.392;10.836;2022-12-10T06:55:37;4.00;99.90
6114;DHT22;3087;48.392;10.836;2022-12-10T07:00:29;4.00;99.90
6114;DHT22;3087;48.392;10.836;2022-12-10T07:02:55;4.00;99.90
6114;DHT22;3087;48.392;10.836;2022-12-10T07:05:21;4.00;99.90
6114;DHT22;3087;48.392;10.836;2022-12-10T07:15:05;3.90;99.90
6114;DHT22;3087;48.392;10.836;2022-12-10T07:17:31;3.90;99.90
6114;DHT22;3087;48.392;10.836;2022-12-10T07:29:43;4.10;99.90
6114;DHT22;3087;48.392;10.836;2022-12-10T07:32:08;4.20;99.90
6114;DHT22;3087;48.392;10.836;2022-12-10T07:37:00;4.30;99.90
6114;DHT22;3087;48.392;10.836;2022-12-10T07:41:52;4.30;99.90
6114;DHT22;3087;48.392;10.836;2022-12-10T07:44:23;4.30;99.90
6114;DHT22;3087;48.392;10.836;2022-12-10T07:46:51;4.20;99.90
6114;DHT22;3087;48.392;10.836;2022-12-10T07:49:18;4.10;99.90
6114;DHT22;3087;48.392;10.836;2022-12-10T07:51:45;4.00;99.90
6114;DHT22;3087;48.392;10.836;2022-12-10T07:54:12;4.10;99.90
6114;DHT22;3087;48.392;10.836;2022-12-10T07:59:03;3.90;99.90
6114;DHT22;3087;48.392;10.836;2022-12-10T08:03:56;3.90;99.90
6114;DHT22;3087;48.392;10.836;2022-12-10T08:06:22;3.90;99.90
6114;DHT22;3087;48.392;10.836;2022-12-10T08:08:49;3.90;99.90
6114;DHT22;3087;48.392;10.836;2022-12-10T08:11:16;3.80;99.90
6114;DHT22;3087;48.392;10.836;2022-12-10T08:13:42;3.70;99.90
6114;DHT22;3087;48.392;10.836;2022-12-10T08:18:39;3.70;99.90
6114;DHT22;3087;48.392;10.836;2022-12-10T08:21:13;3.70;99.90
6114;DHT22;3087;48.392;10.836;2022-12-10T08:26:07;3.90;99.90
6114;DHT22;3087;48.392;10.836;2022-12-10T08:30:59;3.90;99.90
6114;DHT22;3087;48.392;10.836;2022-12-10T08:40:43;4.10;99.90
6114;DHT22;3087;48.392;10.836;2022-12-10T08:48:02;4.30;99.90
6114;DHT22;3087;48.392;10.836;2022-12-10T08:50:28;4.20;99.90
6114;DHT22;3087;48.392;10.836;2022-12-10T08:55:20;4.20;99.90
6114;DHT22;3087;48.392;10.836;2022-12-10T08:57:45;4.20;99.90
6114;DHT22;3087;48.392;10.836;2022-12-10T09:00:12;4.30;99.90
6114;DHT22;3087;48.392;10.836;2022-12-10T09:02:39;4.30;99.90
6114;DHT22;3087;48.392;10.836;2022-12-10T09:05:05;4.10;99.90
6114;DHT22;3087;48.392;10.836;2022-12-10T09:09:57;4.10;99.90
6114;DHT22;3087;48.392;10.836;2022-12-10T09:12:23;4.20;99.90
6114;DHT22;3087;48.392;10.836;2022-12-10T09:22:07;4.10;99.90
6114;DHT22;3087;48.392;10.836;2022-12-10T09:24:34;4.10;99.90
6114;DHT22;3087;48.392;10.836;2022-12-10T09:27:00;4.10;99.90
6114;DHT22;3087;48.392;10.836;2022-12-10T09:29:26;4.00;99.90
6114;DHT22;3087;48.392;10.836;2022-12-10T09:31:52;4.10;99.90
6114;DHT22;3087;48.392;10.836;2022-12-10T09:34:18;4.20;99.90
6114;DHT22;3087;48.392;10.836;2022-12-10T09:36:44;4.10;99.90
6114;DHT22;3087;48.392;10.836;2022-12-10T09:44:21;4.20;99.90
6114;DHT22;3087;48.392;10.836;2022-12-10T09:46:53;4.20;99.90
6114;DHT22;3087;48.392;10.836;2022-12-10T09:49:59;4.10;99.90
6114;DHT22;3087;48.392;10.836;2022-12-10T09:52:33;4.20;99.90
6114;DHT22;3087;48.392;10.836;2022-12-10T09:55:10;4.10;99.90
6114;DHT22;3087;48.392;10.836;2022-12-10T09:57:47;4.10;99.90
6114;DHT22;3087;48.392;10.836;2022-12-10T10:02:45;4.20;99.90
6114;DHT22;3087;48.392;10.836;2022-12-10T10:05:24;4.10;99.90
6114;DHT22;3087;48.392;10.836;2022-12-10T10:07:54;4.10;99.90
6114;DHT22;3087;48.392;10.836;2022-12-10T10:10:30;4.10;99.90
6114;DHT22;3087;48.392;10.836;2022-12-10T10:13:26;4.10;99.90
6114;DHT22;3087;48.392;10.836;2022-12-10T10:15:53;4.20;99.90
6114;DHT22;3087;48.392;10.836;2022-12-10T10:18:35;4.20;99.90
6114;DHT22;3087;48.392;10.836;2022-12-10T10:21:05;4.10;99.90
6114;DHT22;3087;48.392;10.836;2022-12-10T10:23:32;4.10;99.90
6114;DHT22;3087;48.392;10.836;2022-12-10T10:25:58;4.10;99.90
6114;DHT22;3087;48.392;10.836;2022-12-10T10:28:24;4.20;99.90
6114;DHT22;3087;48.392;10.836;2022-12-10T10:30:51;4.20;99.90
6114;DHT22;3087;48.392;10.836;2022-12-10T10:33:17;4.20;99.90
6114;DHT22;3087;48.392;10.836;2022-12-10T10:38:22;4.40;99.90
6114;DHT22;3087;48.392;10.836;2022-12-10T10:40:51;4.50;99.90
6114;DHT22;3087;48.392;10.836;2022-12-10T10:43:27;4.50;99.90
6114;DHT22;3087;48.392;10.836;2022-12-10T10:48:36;4.50;99.90
6114;DHT22;3087;48.392;10.836;2022-12-10T10:51:17;4.50;99.90
6114;DHT22;3087;48.392;10.836;2022-12-10T10:53:53;4.40;99.90
6114;DHT22;3087;48.392;10.836;2022-12-10T10:56:22;4.40;99.90
6114;DHT22;3087;48.392;10.836;2022-12-10T11:01:54;4.30;99.90
6114;DHT22;3087;48.392;10.836;2022-12-10T11:04:28;4.40;99.90
6114;DHT22;3087;48.392;10.836;2022-12-10T11:06:55;4.40;99.90
6114;DHT22;3087;48.392;10.836;2022-12-10T11:09:27;4.30;99.90
6114;DHT22;3087;48.392;10.836;2022-12-10T11:12:05;4.30;99.90
6114;DHT22;3087;48.392;10.836;2022-12-10T11:14:38;4.20;99.90
6114;DHT22;3087;48.392;10.836;2022-12-10T11:19:42;4.30;99.90
6114;DHT22;3087;48.392;10.836;2022-12-10T11:22:23;4.30;99.90
6114;DHT22;3087;48.392;10.836;2022-12-10T11:24:49;4.30;99.90
6114;DHT22;3087;48.392;10.836;2022-12-10T11:32:53;4.40;99.90
6114;DHT22;3087;48.392;10.836;2022-12-10T11:38:52;4.40;99.90
6114;DHT22;3087;48.392;10.836;2022-12-10T11:49:56;4.40;99.90
6114;DHT22;3087;48.392;10.836;2022-12-10T11:52:37;4.40;99.90
6114;DHT22;3087;48.392;10.836;2022-12-10T12:06:36;4.60;99.90
6114;DHT22;3087;48.392;10.836;2022-12-10T12:09:29;4.60;99.90
6114;DHT22;3087;48.392;10.836;2022-12-10T12:14:55;4.60;99.90
6114;DHT22;3087;48.392;10.836;2022-12-10T12:17:38;4.50;99.90
6114;DHT22;3087;48.392;10.836;2022-12-10T12:20:20;4.50;99.90
6114;DHT22;3087;48.392;10.836;2022-12-10T12:22:53;4.60;99.90
6114;DHT22;3087;48.392;10.836;2022-12-10T12:25:35;4.60;99.90
6114;DHT22;3087;48.392;10.836;2022-12-10T12:28:17;4.60;99.90
6114;DHT22;3087;48.392;10.836;2022-12-10T12:30:47;4.60;99.90
6114;DHT22;3087;48.392;10.836;2022-12-10T12:33:32;4.60;99.90
6114;DHT22;3087;48.392;10.836;2022-12-10T12:36:05;4.60;99.90
6114;DHT22;3087;48.392;10.836;2022-12-10T12:38:43;4.70;99.90
6114;DHT22;3087;48.392;10.836;2022-12-10T12:44:21;4.70;99.90
6114;DHT22;3087;48.392;10.836;2022-12-10T12:46:50;4.60;99.90
6114;DHT22;3087;48.392;10.836;2022-12-10T12:49:32;4.50;99.90
6114;DHT22;3087;48.392;10.836;2022-12-10T12:54:56;4.30;99.90
6114;DHT22;3087;48.392;10.836;2022-12-10T12:57:43;4.20;99.90
6114;DHT22;3087;48.392;10.836;2022-12-10T13:00:17;4.30;99.90
6114;DHT22;3087;48.392;10.836;2022-12-10T13:13:35;4.00;99.90
6114;DHT22;3087;48.392;10.836;2022-12-10T13:46:23;4.40;99.90
6114;DHT22;3087;48.392;10.836;2022-12-10T13:48:51;4.30;99.90
6114;DHT22;3087;48.392;10.836;2022-12-10T13:56:55;4.20;99.90
6114;DHT22;3087;48.392;10.836;2022-12-10T14:05:18;3.90;99.90
6114;DHT22;3087;48.392;10.836;2022-12-10T14:07:48;3.90;99.90
6114;DHT22;3087;48.392;10.836;2022-12-10T14:10:17;3.90;99.90
6114;DHT22;3087;48.392;10.836;2022-12-10T14:12:44;3.80;99.90
6114;DHT22;3087;48.392;10.836;2022-12-10T14:15:20;3.70;99.90
6114;DHT22;3087;48.392;10.836;2022-12-10T14:17:50;3.70;99.90
6114;DHT22;3087;48.392;10.836;2022-12-10T14:20:22;3.80;99.90
6114;DHT22;3087;48.392;10.836;2022-12-10T14:22:53;3.90;99.90
6114;DHT22;3087;48.392;10.836;2022-12-10T14:25:44;4.00;99.90
6114;DHT22;3087;48.392;10.836;2022-12-10T14:28:15;4.00;99.90
6114;DHT22;3087;48.392;10.836;2022-12-10T14:30:49;3.90;99.90
6114;DHT22;3087;48.392;10.836;2022-12-10T14:33:22;3.80;99.90
6114;DHT22;3087;48.392;10.836;2022-12-10T14:35:50;3.90;99.90
6114;DHT22;3087;48.392;10.836;2022-12-10T14:38:41;3.90;99.90
6114;DHT22;3087;48.392;10.836;2022-12-10T14:41:06;4.00;99.90
6114;DHT22;3087;48.392;10.836;2022-12-10T14:43:40;3.90;99.90
6114;DHT22;3087;48.392;10.836;2022-12-10T14:46:18;3.90;99.90
6114;DHT22;3087;48.392;10.836;2022-12-10T14:48:49;3.90;99.90
6114;DHT22;3087;48.392;10.836;2022-12-10T14:51:21;3.80;99.90
6114;DHT22;3087;48.392;10.836;2022-12-10T14:53:49;3.70;99.90
6114;DHT22;3087;48.392;10.836;2022-12-10T14:56:24;3.70;99.90
6114;DHT22;3087;48.392;10.836;2022-12-10T15:01:30;3.70;99.90
6114;DHT22;3087;48.392;10.836;2022-12-10T15:04:00;3.80;99.90
6114;DHT22;3087;48.392;10.836;2022-12-10T15:08:55;3.90;99.90
6114;DHT22;3087;48.392;10.836;2022-12-10T15:11:22;3.90;99.90
6114;DHT22;3087;48.392;10.836;2022-12-10T15:13:51;3.90;99.90
6114;DHT22;3087;48.392;10.836;2022-12-10T15:16:42;3.90;99.90
6114;DHT22;3087;48.392;10.836;2022-12-10T15:19:23;3.80;99.90
6114;DHT22;3087;48.392;10.836;2022-12-10T15:21:51;3.80;99.90
6114;DHT22;3087;48.392;10.836;2022-12-10T15:24:25;3.70;99.90
6114;DHT22;3087;48.392;10.836;2022-12-10T15:26:51;3.80;99.90
6114;DHT22;3087;48.392;10.836;2022-12-10T15:32:04;3.90;99.90
6114;DHT22;3087;48.392;10.836;2022-12-10T15:34:37;3.90;99.90
6114;DHT22;3087;48.392;10.836;2022-12-10T15:39:37;4.00;99.90
6114;DHT22;3087;48.392;10.836;2022-12-10T15:42:08;3.90;99.90
6114;DHT22;3087;48.392;10.836;2022-12-10T15:44:39;4.00;99.90
6114;DHT22;3087;48.392;10.836;2022-12-10T15:47:20;3.00;99.90
6114;DHT22;3087;48.392;10.836;2022-12-10T15:49:48;4.10;99.90
6114;DHT22;3087;48.392;10.836;2022-12-10T15:52:40;4.10;99.90
6114;DHT22;3087;48.392;10.836;2022-12-10T15:55:06;4.10;99.90
6114;DHT22;3087;48.392;10.836;2022-12-10T15:57:37;4.10;99.90
6114;DHT22;3087;48.392;10.836;2022-12-10T16:00:14;4.10;99.90
6114;DHT22;3087;48.392;10.836;2022-12-10T16:07:50;4.30;99.90
6114;DHT22;3087;48.392;10.836;2022-12-10T16:10:19;4.40;99.90
6114;DHT22;3087;48.392;10.836;2022-12-10T16:12:48;4.50;99.90
6114;DHT22;3087;48.392;10.836;2022-12-10T16:15:20;4.50;99.90
6114;DHT22;3087;48.392;10.836;2022-12-10T16:20:25;4.30;99.90
6114;DHT22;3087;48.392;10.836;2022-12-10T16:22:55;4.30;99.90
6114;DHT22;3087;48.392;10.836;2022-12-10T16:25:23;4.20;99.90
6114;DHT22;3087;48.392;10.836;2022-12-10T16:35:15;3.70;99.90
6114;DHT22;3087;48.392;10.836;2022-12-10T16:37:43;3.70;99.90
6114;DHT22;3087;48.392;10.836;2022-12-10T16:40:11;3.70;99.90
6114;DHT22;3087;48.392;10.836;2022-12-10T16:45:12;3.70;99.90
6114;DHT22;3087;48.392;10.836;2022-12-10T16:47:38;3.70;99.90
6114;DHT22;3087;48.392;10.836;2022-12-10T16:50:04;3.80;99.90
6114;DHT22;3087;48.392;10.836;2022-12-10T17:02:16;3.70;99.90
6114;DHT22;3087;48.392;10.836;2022-12-10T17:07:10;3.80;99.90
6114;DHT22;3087;48.392;10.836;2022-12-10T17:12:01;3.80;99.90
6114;DHT22;3087;48.392;10.836;2022-12-10T17:14:36;3.90;99.90
6114;DHT22;3087;48.392;10.836;2022-12-10T17:17:04;3.90;99.90
6114;DHT22;3087;48.392;10.836;2022-12-10T17:19:31;3.90;99.90
6114;DHT22;3087;48.392;10.836;2022-12-10T17:24:24;3.80;99.90
6114;DHT22;3087;48.392;10.836;2022-12-10T17:26:50;3.80;99.90
6114;DHT22;3087;48.392;10.836;2022-12-10T17:29:25;3.90;99.90
6114;DHT22;3087;48.392;10.836;2022-12-10T17:34:17;3.90;99.90
6114;DHT22;3087;48.392;10.836;2022-12-10T17:36:43;3.90;99.90
6114;DHT22;3087;48.392;10.836;2022-12-10T17:39:12;3.80;99.90
6114;DHT22;3087;48.392;10.836;2022-12-10T17:41:38;3.80;99.90
6114;DHT22;3087;48.392;10.836;2022-12-10T17:44:04;3.80;99.90
6114;DHT22;3087;48.392;10.836;2022-12-10T17:46:29;3.80;99.90
6114;DHT22;3087;48.392;10.836;2022-12-10T17:56:25;3.70;99.90
6114;DHT22;3087;48.392;10.836;2022-12-10T17:58:53;3.70;99.90
6114;DHT22;3087;48.392;10.836;2022-12-10T18:01:20;3.70;99.90
6114;DHT22;3087;48.392;10.836;2022-12-10T18:03:46;3.70;99.90
6114;DHT22;3087;48.392;10.836;2022-12-10T18:06:21;3.70;99.90
6114;DHT22;3087;48.392;10.836;2022-12-10T18:08:48;3.60;99.90
6114;DHT22;3087;48.392;10.836;2022-12-10T18:11:17;3.60;99.90
6114;DHT22;3087;48.392;10.836;2022-12-10T18:16:14;3.60;99.90
6114;DHT22;3087;48.392;10.836;2022-12-10T18:18:40;3.70;99.90
6114;DHT22;3087;48.392;10.836;2022-12-10T18:21:06;3.70;99.90
6114;DHT22;3087;48.392;10.836;2022-12-10T18:23:33;3.70;99.90
6114;DHT22;3087;48.392;10.836;2022-12-10T18:33:21;3.70;99.90
6114;DHT22;3087;48.392;10.836;2022-12-10T18:38:15;3.70;99.90
6114;DHT22;3087;48.392;10.836;2022-12-10T18:40:41;3.70;99.90
6114;DHT22;3087;48.392;10.836;2022-12-10T18:45:34;3.70;99.90
6114;DHT22;3087;48.392;10.836;2022-12-10T18:48:00;3.80;99.90
6114;DHT22;3087;48.392;10.836;2022-12-10T18:50:28;3.70;99.90
6114;DHT22;3087;48.392;10.836;2022-12-10T18:55:22;3.70;99.90
6114;DHT22;3087;48.392;10.836;2022-12-10T19:00:21;3.70;99.90
6114;DHT22;3087;48.392;10.836;2022-12-10T19:07:39;3.70;99.90
6114;DHT22;3087;48.392;10.836;2022-12-10T19:10:14;3.60;99.90
6114;DHT22;3087;48.392;10.836;2022-12-10T19:12:41;3.60;99.90
6114;DHT22;3087;48.392;10.836;2022-12-10T19:17:34;3.60;99.90
6114;DHT22;3087;48.392;10.836;2022-12-10T19:20:00;3.60;99.90
6114;DHT22;3087;48.392;10.836;2022-12-10T19:24:51;3.50;99.90
6114;DHT22;3087;48.392;10.836;2022-12-10T19:37:01;3.50;99.90
6114;DHT22;3087;48.392;10.836;2022-12-10T19:39:27;3.50;99.90
6114;DHT22;3087;48.392;10.836;2022-12-10T19:41:55;3.50;99.90
6114;DHT22;3087;48.392;10.836;2022-12-10T19:44:21;3.50;99.90
6114;DHT22;3087;48.392;10.836;2022-12-10T19:49:14;3.40;99.90
6114;DHT22;3087;48.392;10.836;2022-12-10T19:51:41;3.50;99.90
6114;DHT22;3087;48.392;10.836;2022-12-10T19:54:07;3.40;99.90
6114;DHT22;3087;48.392;10.836;2022-12-10T19:59:09;3.50;99.90
6114;DHT22;3087;48.392;10.836;2022-12-10T20:06:30;3.50;99.90
6114;DHT22;3087;48.392;10.836;2022-12-10T20:09:02;3.60;99.90
6114;DHT22;3087;48.392;10.836;2022-12-10T20:16:22;3.60;99.90
6114;DHT22;3087;48.392;10.836;2022-12-10T20:18:49;3.60;99.90
6114;DHT22;3087;48.392;10.836;2022-12-10T20:21:16;3.60;99.90
6114;DHT22;3087;48.392;10.836;2022-12-10T20:23:42;3.60;99.90
6114;DHT22;3087;48.392;10.836;2022-12-10T20:26:18;3.60;99.90
6114;DHT22;3087;48.392;10.836;2022-12-10T20:28:47;3.60;99.90
6114;DHT22;3087;48.392;10.836;2022-12-10T20:31:13;3.60;99.90
6114;DHT22;3087;48.392;10.836;2022-12-10T20:36:12;3.60;99.90
6114;DHT22;3087;48.392;10.836;2022-12-10T20:38:39;3.60;99.90
6114;DHT22;3087;48.392;10.836;2022-12-10T20:43:30;3.60;99.90
6114;DHT22;3087;48.392;10.836;2022-12-10T20:50:49;3.60;99.90
6114;DHT22;3087;48.392;10.836;2022-12-10T20:55:41;3.70;99.90
6114;DHT22;3087;48.392;10.836;2022-12-10T20:58:10;3.70;99.90
6114;DHT22;3087;48.392;10.836;2022-12-10T21:00:36;3.70;99.90
6114;DHT22;3087;48.392;10.836;2022-12-10T21:03:02;3.60;99.90
6114;DHT22;3087;48.392;10.836;2022-12-10T21:05:28;3.60;99.90
6114;DHT22;3087;48.392;10.836;2022-12-10T21:07:53;3.60;99.90
6114;DHT22;3087;48.392;10.836;2022-12-10T21:10:19;3.60;99.90
6114;DHT22;3087;48.392;10.836;2022-12-10T21:13:04;3.60;99.90
6114;DHT22;3087;48.392;10.836;2022-12-10T21:20:23;3.60;99.90
6114;DHT22;3087;48.392;10.836;2022-12-10T21:27:42;3.60;99.90
6114;DHT22;3087;48.392;10.836;2022-12-10T21:30:10;3.60;99.90
6114;DHT22;3087;48.392;10.836;2022-12-10T21:32:37;3.60;99.90
6114;DHT22;3087;48.392;10.836;2022-12-10T21:35:04;3.50;99.90
6114;DHT22;3087;48.392;10.836;2022-12-10T21:45:07;3.60;99.90
6114;DHT22;3087;48.392;10.836;2022-12-10T21:47:33;3.60;99.90
6114;DHT22;3087;48.392;10.836;2022-12-10T21:49:58;3.60;99.90
6114;DHT22;3087;48.392;10.836;2022-12-10T21:54:52;3.50;99.90
6114;DHT22;3087;48.392;10.836;2022-12-10T21:57:18;3.50;99.90
6114;DHT22;3087;48.392;10.836;2022-12-10T21:59:43;3.50;99.90
6114;DHT22;3087;48.392;10.836;2022-12-10T22:02:09;3.50;99.90
6114;DHT22;3087;48.392;10.836;2022-12-10T22:04:35;3.40;99.90
6114;DHT22;3087;48.392;10.836;2022-12-10T22:07:01;3.50;99.90
6114;DHT22;3087;48.392;10.836;2022-12-10T22:21:37;3.30;99.90
6114;DHT22;3087;48.392;10.836;2022-12-10T22:24:02;3.30;99.90
6114;DHT22;3087;48.392;10.836;2022-12-10T22:26:28;3.20;99.90
6114;DHT22;3087;48.392;10.836;2022-12-10T22:28:55;3.00;99.90
6114;DHT22;3087;48.392;10.836;2022-12-10T22:31:21;2.90;99.90
6114;DHT22;3087;48.392;10.836;2022-12-10T22:36:13;2.90;99.90
6114;DHT22;3087;48.392;10.836;2022-12-10T22:38:39;3.00;99.90
6114;DHT22;3087;48.392;10.836;2022-12-10T22:41:05;3.00;99.90
6114;DHT22;3087;48.392;10.836;2022-12-10T22:43:31;3.00;99.90
6114;DHT22;3087;48.392;10.836;2022-12-10T22:45:57;3.10;99.90
6114;DHT22;3087;48.392;10.836;2022-12-10T22:48:23;3.10;99.90
6114;DHT22;3087;48.392;10.836;2022-12-10T22:58:07;3.10;99.90
6114;DHT22;3087;48.392;10.836;2022-12-10T23:00:33;3.10;99.90
6114;DHT22;3087;48.392;10.836;2022-12-10T23:03:00;3.10;99.90
6114;DHT22;3087;48.392;10.836;2022-12-10T23:07:51;3.10;99.90
6114;DHT22;3087;48.392;10.836;2022-12-10T23:10:17;3.20;99.90
6114;DHT22;3087;48.392;10.836;2022-12-10T23:12:42;3.10;99.90
6114;DHT22;3087;48.392;10.836;2022-12-10T23:15:26;3.00;99.90
6114;DHT22;3087;48.392;10.836;2022-12-10T23:17:52;3.00;99.90
6114;DHT22;3087;48.392;10.836;2022-12-10T23:20:18;2.90;99.90
6114;DHT22;3087;48.392;10.836;2022-12-10T23:22:43;2.90;99.90
6114;DHT22;3087;48.392;10.836;2022-12-10T23:30:03;2.90;99.90
6114;DHT22;3087;48.392;10.836;2022-12-10T23:32:29;2.90;99.90
6114;DHT22;3087;48.392;10.836;2022-12-10T23:34:54;2.90;99.90
6114;DHT22;3087;48.392;10.836;2022-12-10T23:37:20;3.00;99.90
6114;DHT22;3087;48.392;10.836;2022-12-10T23:47:05;3.10;99.90
6114;DHT22;3087;48.392;10.836;2022-12-10T23:49:30;3.00;99.90
